Oxnard Airport
KOXR : now visible

Airfield :











YOU CAN JOIN US ON...

 
LOGIN :

Register | Disclaimer

   EN    FR    IT 

 









Legend :    VFR   Marginal VFR   IFR   Intensive IFR   Very Intensive IFR
Visi :
Ceiling :
>= 8 km
>= 3000ft
5 to 8 km
1000 to 3000 ft
1500m to 5 km
500 to 1000 ft
800 to 1500m
200 to 500 ft
< 800m
< 200 ft
Symbols :   Thunderstorms  Fog  Heavy snow  Heavy precipitations  Wind > 20 kt






- Airport Elevation : 45 ft


KOXR - Oxnard

CURRENT METAR :
  • 151751Z 09004KT 8SM FEW017 16/11 A3012 RMK AO2 SLP198 T01610111 10161 20111 50002

EXPIRED METARs :
  • 151719Z 00000KT 8SM BKN016 15/10 A3013 RMK AO2 T01500100
  • 151651Z 04005KT 8SM SCT014 15/10 A3013 RMK AO2 SLP201 T01500100
  • 151551Z 05004KT 8SM CLR 12/09 A3011 RMK AO2 SLP197 T01220089
  • 151451Z 07004KT 9SM SCT016 12/08 A3011 RMK AO2 SLP196 T01170083 50007

TAF KOXR
Valid from the 15 at 18:00 until the 16 at 18:00 UTC


151729Z 1518/1618 05005KT P6SM BKN015 BKN200
FM151900 27008KT P6SM BKN200
FM160200 VRB03KT P6SM SCT200
FM161500 05005KT P6SM SCT200



MET'MAP, your aeronautical weather chart ! - Copyright ORBIFLY December 2007 - Disclaimer

ORBIFLY MET'MAP TEAM :

Programming & Development : Alexandra Zaïnal
Concept & Development : Baudouin d'Aumeries
Co-Development & Prog : Marc-Olivier Méhu
Technical & hardware support : Manuel Goepfert

Contact : metmap@orbifly.com




SOURCES & CREDITS :

   NOAA       Earth
Advisory